Montezuma, Indiana
Current Conditions -  °F | °C
As of 8:15 AM on Sunday 23 Nov 2014 (Local Time) from KPRG Reporting Station
Clear Clear  
Wind Chill: 43°   Ceiling: Unl
Heat Index: 48°   Visibility: 10mi
Dew Point: 44°   Wind: 13mph
Humidity: 85%   Direction: 150°SSE
Pressure: 29.83"   Gusts: NA
Location:  39.79°N, 87.37°W
Report Text: KPRG 231315Z AUTO 15011KT 10SM CLR 09/07 A2983 RMK AO2 T00900066
Loading
Personal Weather Stations






























Interactive Weather Map New forecast layout! Learn more

10-Day Weather Forecast

Advertisements
Track Severe Weather on mobile